createdAt,value
2022-08-26T00:00:19.426Z,466
2022-08-26T00:01:11.329Z,470
2022-08-26T00:02:03.300Z,465
2022-08-26T00:02:55.168Z,466
2022-08-26T00:03:47.248Z,465
2022-08-26T00:04:38.998Z,466
2022-08-26T00:05:30.910Z,468
2022-08-26T00:06:22.808Z,460
2022-08-26T00:07:14.748Z,462
2022-08-26T00:08:06.636Z,456
2022-08-26T00:08:58.563Z,458
2022-08-26T00:09:50.460Z,462
2022-08-26T00:10:42.387Z,468
2022-08-26T00:11:34.294Z,465
2022-08-26T00:12:35.937Z,459
2022-08-26T00:13:19.484Z,465
2022-08-26T00:14:10.027Z,453
2022-08-26T00:15:01.876Z,453
2022-08-26T00:15:53.880Z,458
2022-08-26T00:16:48.253Z,465
2022-08-26T00:17:37.663Z,476
2022-08-26T00:18:29.568Z,484
2022-08-26T00:19:21.487Z,470
2022-08-26T00:20:13.383Z,472
2022-08-26T00:21:06.101Z,472
2022-08-26T00:21:57.202Z,468
2022-08-26T00:22:49.122Z,468
2022-08-26T00:23:41.028Z,463
2022-08-26T00:24:32.942Z,462
2022-08-26T00:25:24.834Z,456
2022-08-26T00:26:16.778Z,461
2022-08-26T00:27:08.566Z,460
2022-08-26T00:28:00.590Z,459
2022-08-26T00:28:52.461Z,465
2022-08-26T00:29:44.389Z,467
2022-08-26T00:30:36.297Z,474
2022-08-26T00:31:28.252Z,464
2022-08-26T00:32:20.108Z,464
2022-08-26T00:33:12.027Z,461
2022-08-26T00:34:03.905Z,451
2022-08-26T00:34:55.732Z,454
2022-08-26T00:35:47.739Z,449
2022-08-26T00:36:39.661Z,445
2022-08-26T00:37:31.531Z,444
2022-08-26T00:38:23.449Z,445
2022-08-26T00:39:15.351Z,442
2022-08-26T00:40:07.319Z,448
2022-08-26T00:40:59.144Z,449
2022-08-26T00:41:51.073Z,455
2022-08-26T00:42:45.882Z,463
2022-08-26T00:43:47.083Z,469
2022-08-26T00:44:26.781Z,465
2022-08-26T00:45:18.696Z,463
2022-08-26T00:46:10.681Z,459
2022-08-26T00:47:02.509Z,461
2022-08-26T00:47:54.390Z,460
2022-08-26T00:48:46.310Z,467
2022-08-26T00:49:38.191Z,464
2022-08-26T00:50:30.119Z,462
2022-08-26T00:51:21.999Z,458
2022-08-26T00:52:13.939Z,457
2022-08-26T00:53:05.961Z,466
2022-08-26T00:53:57.761Z,464
2022-08-26T00:54:49.609Z,460
2022-08-26T00:55:41.539Z,454
2022-08-26T00:56:33.423Z,451
2022-08-26T00:57:25.354Z,449
2022-08-26T00:58:17.247Z,445
2022-08-26T00:59:09.145Z,449
2022-08-26T01:00:01.048Z,448
2022-08-26T01:00:52.959Z,456
2022-08-26T01:01:46.050Z,463
2022-08-26T01:02:36.827Z,461
2022-08-26T01:03:28.666Z,451
2022-08-26T01:04:20.573Z,454
2022-08-26T01:05:12.452Z,447
2022-08-26T01:06:04.363Z,451
2022-08-26T01:06:56.233Z,454
2022-08-26T01:07:48.172Z,460
2022-08-26T01:08:40.065Z,461
2022-08-26T01:09:31.970Z,461
2022-08-26T01:10:23.853Z,468
2022-08-26T01:11:15.696Z,464
2022-08-26T01:12:07.660Z,457
2022-08-26T01:12:59.575Z,462
2022-08-26T01:13:51.469Z,459
2022-08-26T01:14:43.362Z,460
2022-08-26T01:15:35.258Z,453
2022-08-26T01:16:27.256Z,463
2022-08-26T01:17:19.054Z,455
2022-08-26T01:18:10.959Z,461
2022-08-26T01:19:02.866Z,458
2022-08-26T01:19:54.783Z,459
2022-08-26T01:20:46.655Z,456
2022-08-26T01:21:40.704Z,456
2022-08-26T01:22:30.515Z,450
2022-08-26T01:23:22.364Z,446
2022-08-26T01:24:14.253Z,446
2022-08-26T01:25:06.167Z,446
2022-08-26T01:25:58.052Z,449
2022-08-26T01:26:49.976Z,450
2022-08-26T01:27:41.846Z,454
2022-08-26T01:28:33.784Z,464
2022-08-26T01:29:25.575Z,461
2022-08-26T01:30:17.573Z,465
2022-08-26T01:31:09.491Z,460
2022-08-26T01:32:01.369Z,456
2022-08-26T01:32:53.246Z,452
2022-08-26T01:33:45.158Z,454
2022-08-26T01:34:37.040Z,461
2022-08-26T01:35:28.950Z,460
2022-08-26T01:36:20.845Z,458
2022-08-26T01:37:15.555Z,449
2022-08-26T01:38:04.613Z,444
2022-08-26T01:38:56.456Z,440
2022-08-26T01:39:48.432Z,442
2022-08-26T01:40:40.272Z,450
2022-08-26T01:41:32.182Z,448
2022-08-26T01:42:24.052Z,442
2022-08-26T01:43:15.882Z,442
2022-08-26T01:44:07.835Z,445
2022-08-26T01:44:59.711Z,443
2022-08-26T01:45:51.679Z,442
2022-08-26T01:46:43.505Z,446
2022-08-26T01:47:35.390Z,446
2022-08-26T01:48:27.267Z,443
2022-08-26T01:49:19.157Z,442
2022-08-26T01:50:11.030Z,444
2022-08-26T01:51:02.931Z,444
2022-08-26T01:51:54.797Z,447
2022-08-26T01:52:54.205Z,445
2022-08-26T01:53:38.576Z,445
2022-08-26T01:54:30.473Z,443
2022-08-26T01:55:32.356Z,443
2022-08-26T01:56:14.246Z,442
2022-08-26T01:57:06.065Z,439
2022-08-26T01:57:58.021Z,438
2022-08-26T01:58:49.919Z,435
2022-08-26T01:59:41.779Z,443
2022-08-26T02:00:33.735Z,449
2022-08-26T02:01:29.150Z,450
2022-08-26T02:02:17.410Z,447
2022-08-26T02:03:09.303Z,443
2022-08-26T02:04:01.174Z,434
2022-08-26T02:04:53.149Z,433
2022-08-26T02:05:44.936Z,436
2022-08-26T02:06:36.839Z,440
2022-08-26T02:07:28.700Z,435
2022-08-26T02:08:24.618Z,435
2022-08-26T02:09:12.473Z,438
2022-08-26T02:10:04.375Z,444
2022-08-26T02:10:56.185Z,447
2022-08-26T02:11:48.601Z,453
2022-08-26T02:12:40.018Z,451
2022-08-26T02:13:31.906Z,451
2022-08-26T02:14:23.813Z,455
2022-08-26T02:15:15.593Z,451
2022-08-26T02:16:07.887Z,443
2022-08-26T02:16:59.446Z,443
2022-08-26T02:17:52.660Z,443
2022-08-26T02:18:43.222Z,436
2022-08-26T02:19:35.100Z,439
2022-08-26T02:20:26.979Z,441
2022-08-26T02:21:18.860Z,437
2022-08-26T02:22:10.765Z,439
2022-08-26T02:23:02.629Z,446
2022-08-26T02:23:56.069Z,452
2022-08-26T02:24:46.389Z,439
2022-08-26T02:25:38.299Z,452
2022-08-26T02:26:30.166Z,441
2022-08-26T02:27:22.046Z,441
2022-08-26T02:28:13.932Z,444
2022-08-26T02:29:05.745Z,447
2022-08-26T02:29:57.695Z,449
2022-08-26T02:30:49.595Z,443
2022-08-26T02:31:41.550Z,439
2022-08-26T02:32:33.368Z,445
2022-08-26T02:33:25.215Z,452
2022-08-26T02:34:17.126Z,456
2022-08-26T02:35:08.915Z,455
2022-08-26T02:36:00.882Z,452
2022-08-26T02:36:52.748Z,443
2022-08-26T02:37:44.655Z,447
2022-08-26T02:38:36.515Z,444
2022-08-26T02:39:28.402Z,450
2022-08-26T02:40:20.369Z,452
2022-08-26T02:41:12.158Z,458
2022-08-26T02:42:04.050Z,458
2022-08-26T02:42:57.046Z,453
2022-08-26T02:43:47.797Z,451
2022-08-26T02:44:39.719Z,443
2022-08-26T02:45:31.567Z,444
2022-08-26T02:46:29.717Z,448
2022-08-26T02:47:15.367Z,449
2022-08-26T02:48:07.220Z,450
2022-08-26T02:48:59.111Z,447
2022-08-26T02:49:50.994Z,442
2022-08-26T02:50:42.852Z,438
2022-08-26T02:51:34.752Z,442
2022-08-26T02:52:26.616Z,449
2022-08-26T02:53:24.485Z,460
2022-08-26T02:54:10.395Z,463
2022-08-26T02:55:02.227Z,459
2022-08-26T02:55:54.139Z,461
2022-08-26T02:56:45.956Z,464
2022-08-26T02:57:37.903Z,454
2022-08-26T02:58:29.801Z,456
2022-08-26T02:59:24.267Z,448
2022-08-26T03:00:13.557Z,454
2022-08-26T03:01:05.505Z,453
2022-08-26T03:01:57.358Z,456
2022-08-26T03:02:49.319Z,460
2022-08-26T03:03:41.084Z,458
2022-08-26T03:04:33.478Z,466
2022-08-26T03:05:24.849Z,465
2022-08-26T03:06:16.713Z,467
2022-08-26T03:07:08.598Z,469
2022-08-26T03:08:00.470Z,463
2022-08-26T03:08:52.370Z,456
2022-08-26T03:09:44.243Z,456
2022-08-26T03:10:36.025Z,450
2022-08-26T03:11:30.937Z,444
2022-08-26T03:12:19.872Z,453
2022-08-26T03:13:11.749Z,453
2022-08-26T03:14:03.882Z,452
2022-08-26T03:14:55.510Z,463
2022-08-26T03:15:47.699Z,458
2022-08-26T03:16:39.264Z,453
2022-08-26T03:17:31.151Z,452
2022-08-26T03:18:23.009Z,449
2022-08-26T03:19:14.906Z,452
2022-08-26T03:20:06.772Z,456
2022-08-26T03:20:58.677Z,462
2022-08-26T03:21:50.522Z,461
2022-08-26T03:22:42.421Z,458
2022-08-26T03:23:34.325Z,454
2022-08-26T03:24:26.116Z,463
2022-08-26T03:25:18.052Z,460
2022-08-26T03:26:10.922Z,456
2022-08-26T03:27:01.809Z,461
2022-08-26T03:27:53.689Z,465
2022-08-26T03:28:45.561Z,466
2022-08-26T03:29:37.444Z,462
2022-08-26T03:30:29.330Z,469
2022-08-26T03:31:21.261Z,467
2022-08-26T03:32:13.067Z,469
2022-08-26T03:33:05.133Z,463
2022-08-26T03:33:59.594Z,466
2022-08-26T03:34:48.721Z,462
2022-08-26T03:35:40.581Z,460
2022-08-26T03:36:32.478Z,457
2022-08-26T03:37:24.343Z,457
2022-08-26T03:38:16.149Z,461
2022-08-26T03:39:08.092Z,460
2022-08-26T03:40:00.109Z,466
2022-08-26T03:40:51.831Z,470
2022-08-26T03:41:43.722Z,464
2022-08-26T03:42:35.607Z,463
2022-08-26T03:43:27.472Z,464
2022-08-26T03:44:19.329Z,470
2022-08-26T03:45:11.228Z,472
2022-08-26T03:46:03.125Z,467
2022-08-26T03:46:55.200Z,465
2022-08-26T03:47:46.840Z,466
2022-08-26T03:48:38.724Z,468
2022-08-26T03:49:30.593Z,477
2022-08-26T03:50:22.609Z,470
2022-08-26T03:51:14.295Z,478
2022-08-26T03:52:06.155Z,488
2022-08-26T03:52:58.086Z,487
2022-08-26T03:53:49.982Z,482
2022-08-26T03:54:41.835Z,483
2022-08-26T03:55:33.739Z,476
2022-08-26T03:56:25.606Z,480
2022-08-26T03:57:17.491Z,480
2022-08-26T03:58:09.349Z,482
2022-08-26T03:59:01.257Z,483
2022-08-26T03:59:53.119Z,487
2022-08-26T04:00:45.040Z,486
2022-08-26T04:01:36.916Z,487
2022-08-26T04:02:28.865Z,491
2022-08-26T04:03:20.734Z,489
2022-08-26T04:04:15.540Z,489
2022-08-26T04:05:04.451Z,488
2022-08-26T04:05:56.258Z,488
2022-08-26T04:06:48.209Z,485
2022-08-26T04:07:40.115Z,490
2022-08-26T04:08:31.990Z,491
2022-08-26T04:09:23.897Z,483
2022-08-26T04:10:15.762Z,487
2022-08-26T04:11:07.674Z,488
2022-08-26T04:11:59.552Z,486
2022-08-26T04:12:51.447Z,487
2022-08-26T04:13:43.320Z,489
2022-08-26T04:14:35.228Z,490
2022-08-26T04:15:27.119Z,488
2022-08-26T04:16:19.083Z,500
2022-08-26T04:17:10.889Z,495
2022-08-26T04:18:02.772Z,500
2022-08-26T04:18:54.659Z,490
2022-08-26T04:19:46.538Z,489
2022-08-26T04:20:38.437Z,488
2022-08-26T04:21:30.325Z,482
2022-08-26T04:22:24.976Z,486
2022-08-26T04:23:14.116Z,484
2022-08-26T04:24:07.603Z,486
2022-08-26T04:24:57.892Z,482
2022-08-26T04:25:49.763Z,482
2022-08-26T04:26:42.838Z,480
2022-08-26T04:27:33.546Z,484
2022-08-26T04:28:25.437Z,482
2022-08-26T04:29:17.300Z,481
2022-08-26T04:30:09.137Z,472
2022-08-26T04:31:01.109Z,482
2022-08-26T04:31:55.315Z,482
2022-08-26T04:32:44.871Z,483
2022-08-26T04:33:36.753Z,480
2022-08-26T04:34:28.911Z,478
2022-08-26T04:35:25.720Z,478
2022-08-26T04:36:12.403Z,478
2022-08-26T04:37:04.298Z,480
2022-08-26T04:37:56.127Z,478
2022-08-26T04:38:48.073Z,481
2022-08-26T04:39:39.951Z,476
2022-08-26T04:40:31.944Z,490
2022-08-26T04:41:23.730Z,478
2022-08-26T04:42:18.864Z,483
2022-08-26T04:43:07.718Z,491
2022-08-26T04:43:59.407Z,483
2022-08-26T04:44:51.282Z,473
2022-08-26T04:45:43.185Z,472
2022-08-26T04:46:35.161Z,481
2022-08-26T04:47:30.469Z,480
2022-08-26T04:48:18.848Z,477
2022-08-26T04:49:10.728Z,474
2022-08-26T04:50:02.555Z,477
2022-08-26T04:50:54.492Z,478
2022-08-26T04:51:46.307Z,477
2022-08-26T04:52:38.275Z,478
2022-08-26T04:53:30.149Z,483
2022-08-26T04:54:22.097Z,483
2022-08-26T04:55:13.923Z,487
2022-08-26T04:56:05.834Z,479
2022-08-26T04:56:57.692Z,475
2022-08-26T04:57:49.610Z,476
2022-08-26T04:58:41.488Z,477
2022-08-26T04:59:37.184Z,469
2022-08-26T05:00:25.248Z,470
2022-08-26T05:01:17.163Z,475
2022-08-26T05:02:09.015Z,479
2022-08-26T05:03:00.900Z,473
2022-08-26T05:03:52.825Z,476
2022-08-26T05:04:44.670Z,465
2022-08-26T05:05:36.445Z,459
2022-08-26T05:06:28.409Z,462
2022-08-26T05:07:20.275Z,469
2022-08-26T05:08:12.187Z,460
2022-08-26T05:09:04.031Z,465
2022-08-26T05:09:55.860Z,471
2022-08-26T05:10:47.782Z,472
2022-08-26T05:11:39.666Z,470
2022-08-26T05:12:31.575Z,472
2022-08-26T05:13:23.443Z,471
2022-08-26T05:14:15.297Z,470
2022-08-26T05:15:07.177Z,480
2022-08-26T05:16:00.571Z,476
2022-08-26T05:16:50.957Z,475
2022-08-26T05:17:42.808Z,463
2022-08-26T05:18:34.693Z,467
2022-08-26T05:19:27.834Z,473
2022-08-26T05:20:21.574Z,478
2022-08-26T05:21:10.313Z,480
2022-08-26T05:22:02.203Z,468
2022-08-26T05:22:54.055Z,481
2022-08-26T05:23:45.936Z,474
2022-08-26T05:24:37.822Z,477
2022-08-26T05:25:29.693Z,473
2022-08-26T05:26:23.036Z,464
2022-08-26T05:27:13.469Z,463
2022-08-26T05:28:05.329Z,470
2022-08-26T05:28:57.207Z,481
2022-08-26T05:29:54.544Z,472
2022-08-26T05:30:41.022Z,468
2022-08-26T05:31:32.880Z,463
2022-08-26T05:32:24.696Z,468
2022-08-26T05:33:16.502Z,473
2022-08-26T05:34:08.639Z,473
2022-08-26T05:35:00.336Z,460
2022-08-26T05:35:52.206Z,469
2022-08-26T05:36:44.070Z,471
2022-08-26T05:37:35.936Z,461
2022-08-26T05:38:30.351Z,468
2022-08-26T05:39:19.709Z,466
2022-08-26T05:40:11.638Z,465
2022-08-26T05:41:03.451Z,467
2022-08-26T05:41:55.298Z,468
2022-08-26T05:42:47.191Z,466
2022-08-26T05:43:39.048Z,470
2022-08-26T05:44:53.597Z,466
2022-08-26T05:45:22.808Z,471
2022-08-26T05:46:14.806Z,471
2022-08-26T05:47:06.473Z,470
2022-08-26T05:47:58.427Z,466
2022-08-26T05:48:50.287Z,468
2022-08-26T05:49:51.262Z,461
2022-08-26T05:50:34.035Z,463
2022-08-26T05:51:26.198Z,470
2022-08-26T05:52:17.781Z,466
2022-08-26T05:53:09.816Z,464
2022-08-26T05:54:01.534Z,455
2022-08-26T05:54:53.408Z,462
2022-08-26T05:55:45.272Z,446
2022-08-26T05:56:37.159Z,451
2022-08-26T05:57:29.018Z,451
2022-08-26T05:58:20.938Z,450
2022-08-26T05:59:14.469Z,445
2022-08-26T06:00:04.660Z,451
2022-08-26T06:00:56.473Z,460
2022-08-26T06:01:48.511Z,454
2022-08-26T06:02:40.339Z,457
2022-08-26T06:03:32.161Z,451
2022-08-26T06:04:24.854Z,454
2022-08-26T06:05:15.921Z,452
2022-08-26T06:06:07.788Z,469
2022-08-26T06:06:59.672Z,459
2022-08-26T06:07:51.519Z,455
2022-08-26T06:08:43.424Z,460
2022-08-26T06:09:35.277Z,464
2022-08-26T06:10:32.488Z,453
2022-08-26T06:11:19.055Z,447
2022-08-26T06:12:10.912Z,464
2022-08-26T06:13:09.249Z,460
2022-08-26T06:13:54.672Z,455
2022-08-26T06:14:46.458Z,459
2022-08-26T06:15:38.470Z,457
2022-08-26T06:16:30.278Z,451
2022-08-26T06:17:22.150Z,447
2022-08-26T06:18:14.055Z,451
2022-08-26T06:19:10.739Z,446
2022-08-26T06:19:57.780Z,438
2022-08-26T06:20:58.012Z,443
2022-08-26T06:21:41.523Z,445
2022-08-26T06:22:33.418Z,439
2022-08-26T06:23:25.285Z,443
2022-08-26T06:24:17.175Z,451
2022-08-26T06:25:09.068Z,445
2022-08-26T06:26:00.926Z,455
2022-08-26T06:26:52.805Z,454
2022-08-26T06:27:44.686Z,443
2022-08-26T06:28:36.480Z,453
2022-08-26T06:29:28.441Z,457
2022-08-26T06:30:20.305Z,455
2022-08-26T06:31:12.304Z,452
2022-08-26T06:32:04.063Z,447
2022-08-26T06:32:55.935Z,450
2022-08-26T06:33:47.820Z,443
2022-08-26T06:34:39.701Z,440
2022-08-26T06:35:31.570Z,448
2022-08-26T06:36:23.448Z,439
2022-08-26T06:37:15.326Z,455
2022-08-26T06:38:07.211Z,444
2022-08-26T06:38:59.076Z,447
2022-08-26T06:39:51.209Z,445
2022-08-26T06:40:42.818Z,445
2022-08-26T06:41:34.703Z,448
2022-08-26T06:42:26.515Z,449
2022-08-26T06:43:18.452Z,445
2022-08-26T06:44:10.350Z,444
2022-08-26T06:45:02.213Z,449
2022-08-26T06:45:54.128Z,444
2022-08-26T06:46:45.994Z,444
2022-08-26T06:47:37.828Z,442
2022-08-26T06:48:29.707Z,434
2022-08-26T06:49:27.161Z,447
2022-08-26T06:50:13.489Z,454
2022-08-26T06:51:05.341Z,446
2022-08-26T06:51:57.233Z,440
2022-08-26T06:52:49.090Z,436
2022-08-26T06:53:41.048Z,452
2022-08-26T06:54:32.859Z,449
2022-08-26T06:55:26.859Z,441
2022-08-26T06:56:16.548Z,440
2022-08-26T06:57:08.513Z,436
2022-08-26T06:58:00.373Z,439
2022-08-26T06:58:52.258Z,433
2022-08-26T06:59:44.142Z,425
2022-08-26T07:00:36.032Z,426
2022-08-26T07:01:27.939Z,430
2022-08-26T07:02:19.842Z,433
2022-08-26T07:03:11.893Z,441
2022-08-26T07:04:03.543Z,446
2022-08-26T07:04:56.897Z,441
2022-08-26T07:05:47.314Z,443
2022-08-26T07:06:39.202Z,445
2022-08-26T07:07:31.083Z,438
2022-08-26T07:08:22.947Z,454
2022-08-26T07:09:14.845Z,450
2022-08-26T07:10:06.661Z,438
2022-08-26T07:10:58.611Z,438
2022-08-26T07:11:50.471Z,441
2022-08-26T07:12:42.366Z,433
2022-08-26T07:13:34.223Z,437
2022-08-26T07:14:26.437Z,435
2022-08-26T07:15:17.977Z,433
2022-08-26T07:16:09.838Z,445
2022-08-26T07:17:01.763Z,443
2022-08-26T07:17:53.630Z,437
2022-08-26T07:18:45.817Z,432
2022-08-26T07:19:37.384Z,448
2022-08-26T07:20:29.262Z,436
2022-08-26T07:21:21.135Z,443
2022-08-26T07:22:13.029Z,431
2022-08-26T07:23:04.936Z,424
2022-08-26T07:24:01.335Z,427
2022-08-26T07:24:48.665Z,422
2022-08-26T07:25:40.524Z,425
2022-08-26T07:26:32.421Z,449
2022-08-26T07:27:24.293Z,446
2022-08-26T07:28:16.137Z,441
2022-08-26T07:29:08.047Z,435
2022-08-26T07:29:59.948Z,435
2022-08-26T07:30:51.896Z,427
2022-08-26T07:31:43.731Z,427
2022-08-26T07:32:35.590Z,426
2022-08-26T07:33:27.484Z,423
2022-08-26T07:34:19.372Z,420
2022-08-26T07:35:11.251Z,425
2022-08-26T07:36:04.313Z,427
2022-08-26T07:36:55.370Z,431
2022-08-26T07:37:46.843Z,430
2022-08-26T07:38:38.799Z,429
2022-08-26T07:39:31.460Z,417
2022-08-26T07:40:22.688Z,430
2022-08-26T07:41:14.412Z,435
2022-08-26T07:42:07.790Z,433
2022-08-26T07:42:58.223Z,433
2022-08-26T07:43:50.116Z,432
2022-08-26T07:44:41.991Z,442
2022-08-26T07:45:33.914Z,431
2022-08-26T07:46:27.532Z,435
2022-08-26T07:47:25.452Z,431
2022-08-26T07:48:09.451Z,428
2022-08-26T07:49:01.511Z,428
2022-08-26T07:49:53.354Z,424
2022-08-26T07:50:49.505Z,420
2022-08-26T07:51:37.136Z,414
2022-08-26T07:52:29.010Z,416
2022-08-26T07:53:20.897Z,423
2022-08-26T07:54:12.786Z,441
2022-08-26T07:55:04.658Z,439
2022-08-26T07:55:56.534Z,447
2022-08-26T07:56:48.441Z,445
2022-08-26T07:57:40.321Z,434
2022-08-26T07:58:32.203Z,434
2022-08-26T07:59:24.100Z,441
2022-08-26T08:00:15.960Z,441
2022-08-26T08:01:07.955Z,428
2022-08-26T08:01:59.828Z,438
2022-08-26T08:02:51.649Z,439
2022-08-26T08:03:43.553Z,442
2022-08-26T08:04:35.481Z,421
2022-08-26T08:05:27.379Z,421
2022-08-26T08:06:19.215Z,441
2022-08-26T08:07:11.981Z,436
2022-08-26T08:08:26.352Z,443
2022-08-26T08:08:54.863Z,433
2022-08-26T08:09:46.667Z,427
2022-08-26T08:10:38.632Z,427
2022-08-26T08:11:30.538Z,432
2022-08-26T08:12:22.398Z,430
2022-08-26T08:13:14.299Z,435
2022-08-26T08:14:08.595Z,441
2022-08-26T08:14:58.057Z,437
2022-08-26T08:15:50.291Z,438
2022-08-26T08:16:45.818Z,442
2022-08-26T08:17:33.732Z,440
2022-08-26T08:18:25.615Z,432
2022-08-26T08:19:17.477Z,425
2022-08-26T08:20:09.376Z,439
2022-08-26T08:21:20.944Z,431
2022-08-26T08:21:53.160Z,429
2022-08-26T08:22:45.033Z,424
2022-08-26T08:23:36.829Z,435
2022-08-26T08:24:28.800Z,428
2022-08-26T08:25:20.694Z,422
2022-08-26T08:26:12.582Z,429
2022-08-26T08:27:04.473Z,423
2022-08-26T08:27:56.280Z,430
2022-08-26T08:28:48.255Z,426
2022-08-26T08:29:40.131Z,424
2022-08-26T08:30:32.082Z,423
2022-08-26T08:31:38.623Z,451
2022-08-26T08:32:15.821Z,454
2022-08-26T08:33:07.686Z,455
2022-08-26T08:33:59.607Z,451
2022-08-26T08:34:51.692Z,456
2022-08-26T08:35:43.380Z,449
2022-08-26T08:36:36.159Z,453
2022-08-26T08:37:27.188Z,433
2022-08-26T08:38:19.036Z,431
2022-08-26T08:39:10.947Z,424
2022-08-26T08:40:02.797Z,465
2022-08-26T08:40:54.731Z,453
2022-08-26T08:41:46.549Z,439
2022-08-26T08:42:38.611Z,460
2022-08-26T08:43:30.392Z,458
2022-08-26T08:45:14.170Z,452
2022-08-26T08:46:06.155Z,427
2022-08-26T08:46:57.970Z,446
2022-08-26T08:47:49.881Z,449
2022-08-26T08:48:41.736Z,437
2022-08-26T08:49:33.653Z,433
2022-08-26T08:50:25.553Z,434
2022-08-26T08:51:17.421Z,432
2022-08-26T08:52:09.315Z,427
2022-08-26T08:53:01.191Z,430
2022-08-26T08:53:54.796Z,430
2022-08-26T08:54:44.950Z,438
2022-08-26T08:55:36.757Z,433
2022-08-26T08:56:28.726Z,433
2022-08-26T08:57:20.598Z,428
2022-08-26T08:58:12.505Z,442
2022-08-26T08:59:04.398Z,446
2022-08-26T08:59:56.280Z,446
2022-08-26T09:00:48.164Z,445
2022-08-26T09:01:40.107Z,430
2022-08-26T09:02:32.008Z,442
2022-08-26T09:03:23.827Z,440
2022-08-26T09:04:17.360Z,436
2022-08-26T09:05:07.771Z,424
2022-08-26T09:05:59.467Z,434
2022-08-26T09:06:51.411Z,430
2022-08-26T09:07:43.230Z,434
2022-08-26T09:08:35.157Z,436
2022-08-26T09:09:27.010Z,425
2022-08-26T09:10:18.934Z,441
2022-08-26T09:11:10.773Z,427
2022-08-26T09:12:02.670Z,437
2022-08-26T09:12:54.556Z,431
2022-08-26T09:13:46.373Z,430
2022-08-26T09:14:38.320Z,439
2022-08-26T09:15:30.625Z,434
2022-08-26T09:16:22.129Z,433
2022-08-26T09:17:14.002Z,428
2022-08-26T09:18:06.058Z,438
2022-08-26T09:18:57.767Z,438
2022-08-26T09:19:49.650Z,439
2022-08-26T09:20:41.531Z,434
2022-08-26T09:21:33.415Z,432
2022-08-26T09:22:25.310Z,433
2022-08-26T09:23:17.174Z,432
2022-08-26T09:24:11.316Z,438
2022-08-26T09:25:00.979Z,431
2022-08-26T09:25:55.571Z,434
2022-08-26T09:26:44.768Z,438
2022-08-26T09:27:37.687Z,443
2022-08-26T09:28:28.517Z,424
2022-08-26T09:30:12.291Z,409
2022-08-26T09:31:07.934Z,412
2022-08-26T09:31:56.071Z,438
2022-08-26T09:32:55.913Z,430
2022-08-26T09:33:39.873Z,428
2022-08-26T09:34:31.763Z,442
2022-08-26T09:35:23.634Z,449
2022-08-26T09:36:15.535Z,446
2022-08-26T09:37:07.397Z,447
2022-08-26T09:37:59.326Z,445
2022-08-26T09:38:51.214Z,445
2022-08-26T09:39:43.132Z,441
2022-08-26T09:40:35.353Z,451
2022-08-26T09:41:26.825Z,455
2022-08-26T09:42:18.819Z,462
2022-08-26T09:43:10.728Z,463
2022-08-26T09:44:02.602Z,456
2022-08-26T09:44:54.603Z,453
2022-08-26T09:45:50.642Z,448
2022-08-26T09:47:30.322Z,447
2022-08-26T09:48:22.128Z,450
2022-08-26T09:49:14.114Z,452
2022-08-26T09:50:09.876Z,443
2022-08-26T09:50:57.833Z,446
2022-08-26T09:51:50.181Z,450
2022-08-26T09:52:42.775Z,447
2022-08-26T09:53:33.573Z,451
2022-08-26T09:54:25.469Z,445
2022-08-26T09:55:17.288Z,446
2022-08-26T09:56:09.283Z,443
2022-08-26T09:57:01.190Z,444
2022-08-26T09:57:53.107Z,441
2022-08-26T09:58:45.025Z,452
2022-08-26T09:59:36.851Z,453
2022-08-26T10:00:28.835Z,454
2022-08-26T10:01:20.771Z,452
2022-08-26T10:02:12.652Z,448
2022-08-26T10:03:04.554Z,452
2022-08-26T10:03:56.454Z,447
2022-08-26T10:04:48.383Z,447
2022-08-26T10:05:40.298Z,445
2022-08-26T10:06:32.205Z,447
2022-08-26T10:07:24.117Z,448
2022-08-26T10:08:16.037Z,445
2022-08-26T10:09:09.883Z,448
2022-08-26T10:09:59.858Z,451
2022-08-26T10:10:53.215Z,449
2022-08-26T10:11:43.669Z,446
2022-08-26T10:12:35.611Z,448
2022-08-26T10:13:29.473Z,449
2022-08-26T10:14:20.175Z,444
2022-08-26T10:15:11.881Z,448
2022-08-26T10:16:03.258Z,444
2022-08-26T10:16:55.247Z,445
2022-08-26T10:17:47.008Z,447
2022-08-26T10:18:38.987Z,444
2022-08-26T10:19:56.195Z,444
2022-08-26T10:20:23.914Z,445
2022-08-26T10:21:14.654Z,444
2022-08-26T10:22:06.582Z,442
2022-08-26T10:22:58.576Z,445
2022-08-26T10:23:50.493Z,446
2022-08-26T10:24:42.402Z,447
2022-08-26T10:25:34.302Z,449
2022-08-26T10:26:26.240Z,446
2022-08-26T10:27:18.131Z,446
2022-08-26T10:28:10.308Z,444
2022-08-26T10:29:01.974Z,447
2022-08-26T10:29:53.895Z,448
2022-08-26T10:30:45.803Z,447
2022-08-26T10:31:40.113Z,446
2022-08-26T10:32:29.761Z,449
2022-08-26T10:33:21.558Z,442
2022-08-26T10:34:14.077Z,447
2022-08-26T10:35:05.386Z,446
2022-08-26T10:35:57.307Z,448
2022-08-26T10:37:07.085Z,447
2022-08-26T10:37:41.133Z,451
2022-08-26T10:38:33.054Z,450
2022-08-26T10:39:24.969Z,449
2022-08-26T10:40:16.936Z,453
2022-08-26T10:41:09.717Z,454
2022-08-26T10:42:00.724Z,449
2022-08-26T10:42:52.627Z,451
2022-08-26T10:43:44.553Z,444
2022-08-26T10:44:36.434Z,450
2022-08-26T10:45:28.481Z,450
2022-08-26T10:46:20.359Z,449
2022-08-26T10:47:12.213Z,449
2022-08-26T10:48:04.117Z,450
2022-08-26T10:48:56.057Z,447
2022-08-26T10:49:47.958Z,448
2022-08-26T10:50:39.886Z,450
2022-08-26T10:51:31.804Z,451
2022-08-26T10:52:23.714Z,453
2022-08-26T10:53:15.622Z,454
2022-08-26T10:54:07.556Z,445
2022-08-26T10:54:59.455Z,451
2022-08-26T10:55:51.391Z,460
2022-08-26T10:56:43.306Z,482
2022-08-26T10:57:35.226Z,485
2022-08-26T10:58:27.601Z,492
2022-08-26T10:59:19.055Z,503
2022-08-26T11:00:10.963Z,542
2022-08-26T11:01:02.958Z,560
2022-08-26T11:01:54.785Z,543
2022-08-26T11:02:47.172Z,539
2022-08-26T11:03:38.618Z,556
2022-08-26T11:04:30.624Z,547
2022-08-26T11:05:22.475Z,547
2022-08-26T11:06:14.301Z,549
2022-08-26T11:07:06.334Z,561
2022-08-26T11:07:58.240Z,553
2022-08-26T11:08:50.124Z,556
2022-08-26T11:09:42.064Z,555
2022-08-26T11:10:33.980Z,552
2022-08-26T11:11:25.914Z,543
2022-08-26T11:12:17.810Z,559
2022-08-26T11:13:09.837Z,560
2022-08-26T11:14:01.651Z,550
2022-08-26T11:14:59.113Z,553
2022-08-26T11:15:45.500Z,543
2022-08-26T11:16:42.957Z,545
2022-08-26T11:17:29.350Z,530
2022-08-26T11:18:21.296Z,522
2022-08-26T11:19:13.185Z,525
2022-08-26T11:20:09.147Z,521
2022-08-26T11:20:56.939Z,523
2022-08-26T11:21:49.557Z,530
2022-08-26T11:22:47.613Z,535
2022-08-26T11:23:32.862Z,508
2022-08-26T11:24:24.736Z,499
2022-08-26T11:25:16.608Z,497
2022-08-26T11:26:08.729Z,499
2022-08-26T11:27:00.524Z,499
2022-08-26T11:27:52.437Z,513
2022-08-26T11:28:44.405Z,499
2022-08-26T11:29:36.276Z,501
2022-08-26T11:30:28.240Z,509
2022-08-26T11:31:20.216Z,499
2022-08-26T11:32:12.087Z,511
2022-08-26T11:33:03.988Z,501
2022-08-26T11:33:55.931Z,501
2022-08-26T11:34:47.854Z,507
2022-08-26T11:35:39.772Z,514
2022-08-26T11:36:31.674Z,516
2022-08-26T11:37:23.611Z,521
2022-08-26T11:38:15.448Z,526
2022-08-26T11:39:07.479Z,524
2022-08-26T11:39:59.417Z,515
2022-08-26T11:40:51.310Z,521
2022-08-26T11:41:43.214Z,523
2022-08-26T11:42:35.161Z,524
2022-08-26T11:43:26.985Z,545
2022-08-26T11:44:18.999Z,540
2022-08-26T11:45:10.907Z,538
2022-08-26T11:46:02.901Z,538
2022-08-26T11:46:54.768Z,546
2022-08-26T11:47:46.627Z,544
2022-08-26T11:48:38.618Z,548
2022-08-26T11:49:30.552Z,549
2022-08-26T11:50:22.470Z,546
2022-08-26T11:51:14.442Z,541
2022-08-26T11:52:06.306Z,543
2022-08-26T11:52:58.249Z,535
2022-08-26T11:53:50.148Z,537
2022-08-26T11:54:42.088Z,537
2022-08-26T11:55:34.020Z,546
2022-08-26T11:56:25.950Z,551
2022-08-26T11:57:17.846Z,543